Time;durP1;ratioP1;P1;durP2;ratioP2;P2;SDS_P1;SDS_P2;PMS_P1;PMS_P2;Temp;Humidity;BMP_temperature;BMP_pressure;BME280_temperature;BME280_humidity;BME280_pressure;Samples;Min_cycle;Max_cycle;Signal;HPM_P1;HPM_P2
2023/03/04 00:00:29;;;;;;;;;16.20;15.40;;;;;3.18;69.67;100733.31;5098193;28;8919;-57
2023/03/04 00:02:57;;;;;;;;;20.40;15.60;;;;;3.20;69.88;100733.28;5097458;28;8830;-61
2023/03/04 00:05:25;;;;;;;;;15.00;13.00;;;;;3.20;69.63;100731.50;5099932;28;8967;-60
2023/03/04 00:07:52;;;;;;;;;19.20;16.20;;;;;3.20;69.82;100731.50;5098286;28;8841;-61
2023/03/04 00:10:21;;;;;;;;;13.40;10.80;;;;;3.21;69.98;100733.22;5097759;28;8849;-61
2023/03/04 00:12:49;;;;;;;;;14.60;13.80;;;;;3.23;69.85;100736.66;5086089;28;8818;-61
2023/03/04 00:15:17;;;;;;;;;12.40;10.00;;;;;3.26;69.66;100728.63;5064170;28;8838;-59
2023/03/04 00:17:45;;;;;;;;;9.20;8.60;;;;;3.31;69.57;100726.69;5074353;28;8839;-58
2023/03/04 00:20:12;;;;;;;;;17.00;14.80;;;;;3.36;70.16;100719.50;5077203;28;8873;-59
2023/03/04 00:22:40;;;;;;;;;20.60;18.00;;;;;3.40;69.96;100721.06;5068102;28;8828;-58
2023/03/04 00:25:08;;;;;;;;;15.00;13.00;;;;;3.46;69.37;100722.59;5067191;28;8901;-61
2023/03/04 00:27:36;;;;;;;;;14.40;11.40;;;;;3.51;69.71;100716.25;5073765;28;8844;-58
2023/03/04 00:30:03;;;;;;;;;9.00;9.00;;;;;3.56;69.34;100716.94;5076482;28;9813;-58
2023/03/04 00:32:32;;;;;;;;;12.40;10.80;;;;;3.62;69.63;100719.31;5078298;28;8834;-58
2023/03/04 00:34:59;;;;;;;;;15.40;13.40;;;;;3.67;69.08;100725.28;5078648;28;8969;-58
2023/03/04 00:37:27;;;;;;;;;9.60;9.60;;;;;3.70;68.84;100711.97;5080825;28;8804;-60
2023/03/04 00:39:55;;;;;;;;;8.00;7.20;;;;;3.73;68.76;100707.44;5078052;28;9490;-62
2023/03/04 00:42:22;;;;;;;;;6.00;5.60;;;;;3.78;69.29;100703.78;5058507;28;8859;-58
2023/03/04 00:44:50;;;;;;;;;8.20;7.80;;;;;3.80;69.30;100708.09;5058095;28;9912;-59
2023/03/04 00:47:18;;;;;;;;;12.60;10.00;;;;;3.86;69.49;100710.44;5071555;28;8862;-60
2023/03/04 00:49:46;;;;;;;;;8.20;6.80;;;;;3.89;69.04;100711.19;5097650;28;8813;-59
2023/03/04 00:52:14;;;;;;;;;10.00;9.60;;;;;3.91;69.14;100709.38;5098450;28;8920;-62
2023/03/04 00:54:42;;;;;;;;;9.80;9.40;;;;;3.94;69.17;100711.00;5097677;28;8849;-62
2023/03/04 00:57:09;;;;;;;;;1.00;1.00;;;;;3.95;69.05;100702.19;5096175;28;8840;-61
2023/03/04 00:59:37;;;;;;;;;12.20;8.60;;;;;3.97;68.86;100711.72;5076791;28;8832;-61
2023/03/04 01:02:05;;;;;;;;;7.40;7.00;;;;;3.99;68.53;100703.78;5077193;28;8864;-59
2023/03/04 01:04:33;;;;;;;;;7.00;7.00;;;;;4.01;68.73;100705.44;5078417;28;8836;-62
2023/03/04 01:07:00;;;;;;;;;12.40;10.00;;;;;4.03;69.13;100700.94;5077486;28;8827;-61
2023/03/04 01:09:28;;;;;;;;;9.80;9.20;;;;;4.06;68.96;100697.34;5076729;28;8820;-59
2023/03/04 01:11:56;;;;;;;;;9.60;8.20;;;;;4.08;68.58;100698.13;5077296;28;9571;-61
2023/03/04 01:14:24;;;;;;;;;4.60;4.00;;;;;4.10;68.73;100698.94;5077223;28;8863;-61
2023/03/04 01:16:53;;;;;;;;;3.20;2.20;;;;;4.12;68.52;100694.44;5077130;28;8827;-59
2023/03/04 01:19:21;;;;;;;;;9.00;7.00;;;;;4.14;68.59;100700.50;5076428;28;8828;-61
2023/03/04 01:21:49;;;;;;;;;9.40;9.40;;;;;4.16;68.70;100696.91;5077139;28;8832;-61
2023/03/04 01:24:16;;;;;;;;;9.60;9.00;;;;;4.17;68.31;100692.47;5077140;28;9473;-60
2023/03/04 01:26:44;;;;;;;;;5.20;3.80;;;;;4.17;68.35;100688.06;5077342;28;8852;-60
2023/03/04 01:29:12;;;;;;;;;7.00;6.20;;;;;4.18;68.57;100688.94;5075858;28;8832;-59
2023/03/04 01:31:40;;;;;;;;;7.60;6.80;;;;;4.19;68.68;100680.94;5076712;28;8835;-61
2023/03/04 01:34:08;;;;;;;;;11.20;6.00;;;;;4.19;68.23;100680.94;5076814;28;8820;-61
2023/03/04 01:36:36;;;;;;;;;5.20;5.20;;;;;4.20;68.92;100677.38;5076922;28;8824;-62
2023/03/04 01:39:04;;;;;;;;;7.00;4.80;;;;;4.21;68.26;100668.59;5076366;28;8858;-59
2023/03/04 01:41:32;;;;;;;;;4.00;4.00;;;;;4.23;68.80;100673.75;5076587;28;8908;-59
2023/03/04 01:44:01;;;;;;;;;4.40;4.40;;;;;4.23;68.96;100669.38;5076596;28;8854;-61
2023/03/04 01:46:28;;;;;;;;;5.80;5.60;;;;;4.24;68.51;100673.72;5076463;28;8854;-61
2023/03/04 01:48:56;;;;;;;;;7.00;7.00;;;;;4.26;68.13;100668.38;5076405;28;8840;-59
2023/03/04 01:51:24;;;;;;;;;9.80;9.80;;;;;4.26;68.80;100669.22;5076672;28;8832;-62
2023/03/04 01:53:53;;;;;;;;;3.60;3.60;;;;;4.26;68.36;100660.47;5076876;28;8866;-60
2023/03/04 01:56:21;;;;;;;;;6.00;6.00;;;;;4.27;68.11;100662.19;5076282;28;8844;-60
2023/03/04 01:58:49;;;;;;;;;5.60;4.80;;;;;4.27;68.92;100663.03;5068657;28;9851;-58
2023/03/04 02:01:16;;;;;;;;;5.80;5.60;;;;;4.28;68.32;100662.09;5077740;28;8841;-59
2023/03/04 02:03:44;;;;;;;;;4.80;3.40;;;;;4.29;68.75;100660.34;5078066;28;8875;-58
2023/03/04 02:06:12;;;;;;;;;3.40;1.80;;;;;4.28;68.61;100659.47;5077417;28;8855;-58
2023/03/04 02:08:40;;;;;;;;;5.20;3.80;;;;;4.28;68.68;100662.09;5094847;28;8866;-61
2023/03/04 02:11:07;;;;;;;;;4.00;4.00;;;;;4.29;68.54;100657.69;5096548;28;8823;-62
2023/03/04 02:13:35;;;;;;;;;3.20;3.00;;;;;4.28;68.52;100656.00;5096312;28;9557;-60
2023/03/04 02:16:03;;;;;;;;;6.60;5.40;;;;;4.28;68.47;100648.06;5077400;28;8853;-58
2023/03/04 02:18:31;;;;;;;;;4.40;4.00;;;;;4.28;68.26;100651.56;5077362;28;9564;-59
2023/03/04 02:20:59;;;;;;;;;4.00;3.80;;;;;4.29;68.14;100648.03;5077395;28;8844;-58
2023/03/04 02:23:27;;;;;;;;;6.40;4.80;;;;;4.28;68.22;100646.28;5077531;28;9951;-59
2023/03/04 02:25:54;;;;;;;;;8.60;6.20;;;;;4.28;68.89;100656.00;5088544;28;8833;-59
2023/03/04 02:28:22;;;;;;;;;8.60;6.40;;;;;4.29;68.57;100649.78;5076899;28;8814;-59
2023/03/04 02:30:51;;;;;;;;;3.00;2.20;;;;;4.28;68.54;100648.91;5077346;28;8858;-59
2023/03/04 02:33:19;;;;;;;;;4.80;4.80;;;;;4.29;68.34;100645.38;5076921;28;8842;-58
2023/03/04 02:35:47;;;;;;;;;4.00;3.20;;;;;4.30;68.84;100647.09;5080088;28;8830;-61
2023/03/04 02:38:14;;;;;;;;;4.00;4.00;;;;;4.32;68.72;100650.50;5095993;28;8828;-61
2023/03/04 02:40:42;;;;;;;;;7.00;5.60;;;;;4.34;68.41;100645.19;5095087;28;8844;-58
2023/03/04 02:43:10;;;;;;;;;3.00;3.00;;;;;4.35;68.51;100646.91;5076540;28;9879;-58
2023/03/04 02:45:38;;;;;;;;;4.00;4.00;;;;;4.34;68.19;100645.19;5076821;28;8852;-58
2023/03/04 02:48:05;;;;;;;;;5.60;5.20;;;;;4.34;68.23;100637.28;5076905;28;8818;-59
2023/03/04 02:50:33;;;;;;;;;3.00;3.00;;;;;4.34;68.24;100646.03;5077107;28;8829;-58
2023/03/04 02:53:01;;;;;;;;;4.00;3.60;;;;;4.35;68.34;100639.00;5099094;28;8834;-61
2023/03/04 02:55:29;;;;;;;;;1.00;1.00;;;;;4.35;68.42;100634.56;5096033;28;9515;-62
2023/03/04 02:57:57;;;;;;;;;3.20;3.00;;;;;4.36;68.24;100635.41;5090842;28;9111;-59
2023/03/04 03:00:24;;;;;;;;;4.40;3.40;;;;;4.36;68.67;100625.75;5076535;28;8841;-60
2023/03/04 03:02:52;;;;;;;;;3.00;1.80;;;;;4.37;68.31;100631.84;5077344;28;8883;-58
2023/03/04 03:05:20;;;;;;;;;3.80;3.60;;;;;4.37;68.16;100632.72;5077728;28;8968;-58
2023/03/04 03:07:49;;;;;;;;;4.40;4.00;;;;;4.38;68.15;100629.16;5078354;28;8838;-62
2023/03/04 03:10:16;;;;;;;;;2.60;1.00;;;;;4.40;68.69;100623.84;5096118;28;8826;-62
2023/03/04 03:12:44;;;;;;;;;4.80;4.80;;;;;4.42;68.29;100625.47;5095245;28;8814;-58
2023/03/04 03:15:11;;;;;;;;;5.20;3.00;;;;;4.42;68.74;100614.91;5077255;28;8935;-58
2023/03/04 03:17:39;;;;;;;;;2.80;1.80;;;;;4.44;68.33;100614.84;5077190;28;8830;-58
2023/03/04 03:20:07;;;;;;;;;3.60;3.40;;;;;4.44;68.02;100620.13;5077372;28;8845;-58
2023/03/04 03:22:35;;;;;;;;;1.80;1.00;;;;;4.45;68.25;100620.06;5077144;28;8876;-60
2023/03/04 03:25:02;;;;;;;;;0.80;0.20;;;;;4.46;68.66;100613.00;5094723;28;8845;-58
2023/03/04 03:27:30;;;;;;;;;1.80;0.00;;;;;4.48;68.17;100616.44;5080263;28;8973;-58
2023/03/04 03:29:58;;;;;;;;;3.00;3.00;;;;;4.48;68.59;100611.16;5076768;28;8833;-58
2023/03/04 03:32:26;;;;;;;;;2.20;2.20;;;;;4.49;68.42;100615.53;5076383;28;8830;-59
2023/03/04 03:34:54;;;;;;;;;0.80;0.40;;;;;4.50;68.63;100611.94;5087501;28;8829;-59
2023/03/04 03:37:21;;;;;;;;;1.00;1.00;;;;;4.51;68.49;100613.66;5095549;28;8826;-60
2023/03/04 03:39:49;;;;;;;;;2.20;2.20;;;;;4.52;68.88;100615.38;5095170;28;8813;-60
2023/03/04 03:42:17;;;;;;;;;0.00;0.00;;;;;4.52;68.15;100616.25;5095807;28;8837;-59
2023/03/04 03:44:45;;;;;;;;;4.80;4.00;;;;;4.53;68.67;100603.88;5095543;28;8840;-60
2023/03/04 03:47:12;;;;;;;;;0.60;0.60;;;;;4.52;68.45;100608.34;5096000;28;9494;-59
2023/03/04 03:49:41;;;;;;;;;1.00;1.00;;;;;4.53;68.24;100607.41;5097065;28;8814;-59
2023/03/04 03:52:09;;;;;;;;;2.20;1.80;;;;;4.55;68.47;100604.66;5095817;28;9496;-59
2023/03/04 03:54:37;;;;;;;;;0.40;0.00;;;;;4.55;68.10;100607.31;5099027;28;8802;-59
2023/03/04 03:57:05;;;;;;;;;0.00;0.00;;;;;4.56;68.40;100601.13;5099077;28;8904;-59
2023/03/04 03:59:32;;;;;;;;;1.00;1.00;;;;;4.58;68.08;100604.56;5098755;28;8829;-59
2023/03/04 04:02:00;;;;;;;;;5.20;3.80;;;;;4.58;68.50;100607.19;5099076;28;8825;-59
2023/03/04 04:04:28;;;;;;;;;2.60;2.60;;;;;4.57;68.58;100602.84;5099628;28;8902;-61
2023/03/04 04:06:56;;;;;;;;;1.00;1.00;;;;;4.58;68.25;100604.56;5098981;28;8847;-59
2023/03/04 04:09:23;;;;;;;;;1.00;1.00;;;;;4.60;68.11;100600.06;5098740;28;8828;-60
2023/03/04 04:11:51;;;;;;;;;2.80;2.60;;;;;4.60;68.08;100592.16;5098937;28;8858;-59
2023/03/04 04:14:19;;;;;;;;;1.00;1.00;;;;;4.60;68.40;100597.41;5098954;28;9585;-60
2023/03/04 04:16:47;;;;;;;;;3.00;2.60;;;;;4.61;68.26;100604.41;5098543;28;8821;-62
2023/03/04 04:19:14;;;;;;;;;1.00;1.00;;;;;4.61;68.37;100593.84;5098946;28;8856;-59
2023/03/04 04:21:42;;;;;;;;;1.80;1.80;;;;;4.61;68.20;100599.13;5098498;28;9502;-60
2023/03/04 04:24:10;;;;;;;;;0.20;0.20;;;;;4.61;68.23;100596.50;5098684;28;8821;-60
2023/03/04 04:26:38;;;;;;;;;0.00;0.00;;;;;4.62;68.29;100592.94;5098310;28;8836;-60
2023/03/04 04:29:05;;;;;;;;;0.00;0.00;;;;;4.62;68.51;100599.06;5098709;28;8907;-61
2023/03/04 04:31:33;;;;;;;;;0.20;0.00;;;;;4.62;68.01;100590.28;5098474;28;8810;-59
2023/03/04 04:34:01;;;;;;;;;0.60;0.60;;;;;4.62;68.71;100590.28;5098815;28;8891;-60
2023/03/04 04:36:29;;;;;;;;;0.00;0.00;;;;;4.61;68.74;100600.00;5098346;28;8857;-59
2023/03/04 04:38:57;;;;;;;;;0.00;0.00;;;;;4.61;68.40;100599.13;5098253;28;8853;-62
2023/03/04 04:41:24;;;;;;;;;1.40;0.80;;;;;4.62;68.19;100600.84;5088469;28;8841;-58
2023/03/04 04:43:52;;;;;;;;;0.80;0.80;;;;;4.62;68.24;100603.47;5079089;28;8837;-60
2023/03/04 04:46:20;;;;;;;;;0.00;0.00;;;;;4.62;68.29;100599.06;5079124;28;8887;-59
2023/03/04 04:48:48;;;;;;;;;0.80;0.80;;;;;4.63;67.97;100603.41;5079188;28;8845;-58
2023/03/04 04:51:15;;;;;;;;;1.00;1.00;;;;;4.63;67.95;100602.56;5084731;28;8829;-61
2023/03/04 04:53:43;;;;;;;;;0.60;0.60;;;;;4.64;68.47;100604.28;5097958;28;8826;-61
2023/03/04 04:56:11;;;;;;;;;3.00;2.20;;;;;4.63;68.48;100610.50;5094379;28;8848;-58
2023/03/04 04:58:39;;;;;;;;;0.00;0.00;;;;;4.63;68.85;100607.84;5079367;28;8846;-58
2023/03/04 05:01:07;;;;;;;;;0.20;0.00;;;;;4.63;68.17;100600.78;5079509;28;9539;-58
2023/03/04 05:03:34;;;;;;;;;1.40;1.00;;;;;4.65;68.24;100598.09;5078857;28;8969;-59
2023/03/04 05:06:02;;;;;;;;;0.00;0.00;;;;;4.64;68.19;100594.56;5079771;28;8876;-61
2023/03/04 05:08:30;;;;;;;;;0.00;0.00;;;;;4.66;68.13;100605.06;5096959;28;8861;-62
2023/03/04 05:10:58;;;;;;;;;0.00;0.00;;;;;4.66;68.59;100608.56;5097349;28;8818;-59
2023/03/04 05:13:25;;;;;;;;;1.00;1.00;;;;;4.67;68.25;100601.50;5096354;28;8810;-60
2023/03/04 05:15:53;;;;;;;;;1.00;1.00;;;;;4.67;68.22;100605.00;5078766;28;8848;-59
2023/03/04 05:18:21;;;;;;;;;1.00;0.00;;;;;4.67;68.65;100602.38;5059731;28;9090;-58
2023/03/04 05:20:49;;;;;;;;;0.80;0.80;;;;;4.68;68.10;100601.44;5058028;28;8847;-59
2023/03/04 05:23:17;;;;;;;;;0.60;0.20;;;;;4.69;68.36;100597.88;5074146;28;8828;-61
2023/03/04 05:25:44;;;;;;;;;1.40;0.60;;;;;4.69;68.57;100592.59;5077655;28;8820;-59
2023/03/04 05:28:12;;;;;;;;;0.00;0.00;;;;;4.68;68.78;100595.28;5094088;28;8838;-59
2023/03/04 05:30:40;;;;;;;;;1.20;1.20;;;;;4.69;68.25;100597.00;5097880;28;8865;-61
2023/03/04 05:33:08;;;;;;;;;1.80;0.80;;;;;4.69;68.18;100592.59;5097509;28;9464;-61
2023/03/04 05:35:35;;;;;;;;;2.60;2.60;;;;;4.70;68.71;100596.06;5097050;28;8884;-61
2023/03/04 05:38:03;;;;;;;;;1.00;1.00;;;;;4.69;68.82;100592.59;5081184;28;8812;-59
2023/03/04 05:40:31;;;;;;;;;0.00;0.00;;;;;4.69;69.01;100597.88;5076389;28;8829;-62
2023/03/04 05:42:59;;;;;;;;;0.40;0.40;;;;;4.68;68.62;100593.53;5076777;28;8840;-59
2023/03/04 05:45:27;;;;;;;;;1.00;1.00;;;;;4.68;68.58;100592.66;5076584;28;9830;-59
2023/03/04 05:47:55;;;;;;;;;0.40;0.40;;;;;4.67;68.34;100594.47;5090477;28;8844;-58
2023/03/04 05:50:22;;;;;;;;;0.00;0.00;;;;;4.67;68.58;100596.22;5097125;28;8869;-60
2023/03/04 05:52:50;;;;;;;;;2.00;0.80;;;;;4.66;68.78;100595.38;5096613;28;8844;-61
2023/03/04 05:55:18;;;;;;;;;2.40;2.40;;;;;4.66;68.61;100595.38;5096573;28;8868;-60
2023/03/04 05:57:46;;;;;;;;;1.00;0.80;;;;;4.67;68.55;100601.50;5088385;28;8862;-59
2023/03/04 06:00:13;;;;;;;;;0.00;0.00;;;;;4.67;68.82;100605.00;5096414;28;8857;-62
2023/03/04 06:02:41;;;;;;;;;0.00;0.00;;;;;4.68;68.59;100603.22;5096824;28;8818;-60
2023/03/04 06:05:09;;;;;;;;;0.60;0.60;;;;;4.68;68.62;100605.84;5097016;28;8833;-59
2023/03/04 06:07:37;;;;;;;;;0.00;0.00;;;;;4.67;68.52;100605.00;5096523;28;8817;-60
2023/03/04 06:10:05;;;;;;;;;2.60;2.60;;;;;4.66;68.68;100605.06;5096785;28;8845;-60
2023/03/04 06:12:32;;;;;;;;;1.40;0.20;;;;;4.66;68.75;100607.69;5096674;28;9503;-62
2023/03/04 06:15:01;;;;;;;;;0.40;0.40;;;;;4.65;68.96;100608.63;5096396;28;8848;-59
2023/03/04 06:17:29;;;;;;;;;0.00;0.00;;;;;4.64;68.32;100610.41;5095960;28;8833;-61
2023/03/04 06:19:56;;;;;;;;;0.00;0.00;;;;;4.65;68.43;100619.19;5096718;28;8844;-61
2023/03/04 06:22:24;;;;;;;;;0.20;0.20;;;;;4.65;68.66;100622.66;5096634;28;8814;-59
2023/03/04 06:24:53;;;;;;;;;1.00;0.40;;;;;4.66;68.98;100619.13;5096449;28;8822;-59
2023/03/04 06:27:21;;;;;;;;;0.40;0.40;;;;;4.67;68.57;100619.97;5079370;28;8829;-59
2023/03/04 06:29:49;;;;;;;;;0.00;0.00;;;;;4.67;68.84;100627.88;5077557;28;8829;-58
2023/03/04 06:32:16;;;;;;;;;0.00;0.00;;;;;4.68;68.91;100621.66;5077420;28;8853;-59
2023/03/04 06:34:45;;;;;;;;;4.00;1.00;;;;;4.68;68.78;100625.19;5077729;28;8841;-58
2023/03/04 06:37:12;;;;;;;;;2.20;0.80;;;;;4.70;68.79;100630.34;5090067;28;8911;-61
2023/03/04 06:39:40;;;;;;;;;0.00;0.00;;;;;4.71;68.75;100632.09;5096526;28;9472;-61
2023/03/04 06:42:08;;;;;;;;;0.20;0.20;;;;;4.70;68.83;100631.22;5084956;28;8850;-59
2023/03/04 06:44:35;;;;;;;;;0.00;0.00;;;;;4.71;68.74;100634.75;5076713;28;8972;-58
2023/03/04 06:47:04;;;;;;;;;0.60;0.60;;;;;4.73;68.81;100632.88;5077176;28;8947;-58
2023/03/04 06:49:32;;;;;;;;;3.00;2.60;;;;;4.75;68.95;100638.94;5077083;28;8821;-59
2023/03/04 06:51:59;;;;;;;;;0.40;0.40;;;;;4.75;68.46;100639.81;5085445;28;8833;-61
2023/03/04 06:54:27;;;;;;;;;4.00;3.00;;;;;4.77;68.64;100637.06;5095907;28;8841;-62
2023/03/04 06:56:54;;;;;;;;;0.00;0.00;;;;;4.78;68.45;100637.00;5094776;28;8814;-59
2023/03/04 06:59:22;;;;;;;;;0.40;0.00;;;;;4.80;68.21;100642.22;5076842;28;8884;-59
2023/03/04 07:01:50;;;;;;;;;0.40;0.40;;;;;4.81;68.20;100639.53;5076462;28;8956;-58
2023/03/04 07:04:18;;;;;;;;;0.80;0.40;;;;;4.83;68.23;100642.09;5076313;28;8845;-59
2023/03/04 07:06:46;;;;;;;;;0.00;0.00;;;;;4.83;68.87;100631.53;5092127;28;8830;-60
2023/03/04 07:09:14;;;;;;;;;0.00;0.00;;;;;4.86;68.69;100642.81;5095466;28;8863;-60
2023/03/04 07:11:42;;;;;;;;;1.00;1.00;;;;;4.89;68.56;100647.09;5095821;28;8826;-61
2023/03/04 07:14:10;;;;;;;;;0.00;0.00;;;;;4.91;68.07;100637.31;5095495;28;8832;-61
2023/03/04 07:16:38;;;;;;;;;0.80;0.80;;;;;4.93;68.35;100640.75;5095228;28;8968;-61
2023/03/04 07:19:05;;;;;;;;;0.00;0.00;;;;;4.96;68.55;100637.97;5095304;28;9035;-61
2023/03/04 07:21:33;;;;;;;;;0.80;0.80;;;;;4.98;68.11;100646.66;5094876;28;8814;-61
2023/03/04 07:24:01;;;;;;;;;0.00;0.00;;;;;4.99;68.06;100648.38;5094761;28;8844;-60
2023/03/04 07:26:29;;;;;;;;;0.00;0.00;;;;;5.01;68.67;100651.81;5094518;28;8850;-59
2023/03/04 07:28:58;;;;;;;;;0.00;0.00;;;;;5.02;68.29;100648.25;5096906;28;8888;-58
2023/03/04 07:31:28;;;;;;;;;0.40;0.40;;;;;5.06;68.15;100647.16;5098108;28;8840;-61
2023/03/04 07:33:56;;;;;;;;;1.00;1.00;;;;;5.06;68.38;100650.69;5098144;28;8845;-60
2023/03/04 07:36:24;;;;;;;;;1.00;0.40;;;;;5.10;68.13;100652.22;5099575;28;8864;-61
2023/03/04 07:38:53;;;;;;;;;0.00;0.00;;;;;5.11;68.27;100656.59;5097899;28;8848;-62
2023/03/04 07:41:21;;;;;;;;;0.00;0.00;;;;;5.13;67.98;100657.38;5098488;28;8822;-61
2023/03/04 07:43:49;;;;;;;;;0.40;0.40;;;;;5.15;67.81;100654.66;5099723;28;8960;-60
2023/03/04 07:46:16;;;;;;;;;1.60;0.60;;;;;5.15;67.94;100655.53;5099143;28;8834;-60
2023/03/04 07:48:44;;;;;;;;;0.00;0.00;;;;;5.19;67.72;100664.16;5098227;28;9018;-59
2023/03/04 07:51:13;;;;;;;;;0.80;0.80;;;;;5.19;67.95;100656.25;5099340;28;8833;-59
2023/03/04 07:53:41;;;;;;;;;0.20;0.20;;;;;5.19;67.78;100656.25;5099054;28;8841;-59
2023/03/04 07:56:08;;;;;;;;;0.00;0.00;;;;;5.21;68.10;100667.56;5098542;28;9532;-60
2023/03/04 07:58:36;;;;;;;;;0.00;0.00;;;;;5.23;68.13;100655.19;5097526;28;8862;-61
2023/03/04 08:01:04;;;;;;;;;0.40;0.20;;;;;5.28;67.93;100655.81;5098348;28;8848;-59
2023/03/04 08:03:32;;;;;;;;;1.00;1.00;;;;;5.37;67.67;100655.38;5098239;28;8833;-61
2023/03/04 08:06:00;;;;;;;;;0.40;0.40;;;;;5.46;68.04;100641.75;5097981;28;8852;-59
2023/03/04 08:08:28;;;;;;;;;1.40;1.40;;;;;5.56;67.44;100653.59;5096992;28;8837;-60
2023/03/04 08:10:56;;;;;;;;;0.00;0.00;;;;;5.64;67.59;100649.66;5098167;28;8972;-59
2023/03/04 08:13:24;;;;;;;;;4.00;0.80;;;;;5.72;66.85;100650.13;5098122;28;8836;-61
2023/03/04 08:15:53;;;;;;;;;1.80;1.00;;;;;5.82;67.43;100653.19;5096943;28;8837;-59
2023/03/04 08:18:21;;;;;;;;;1.00;1.00;;;;;5.89;67.05;100647.56;5096837;28;8856;-60
2023/03/04 08:20:48;;;;;;;;;1.00;1.00;;;;;5.97;66.73;100647.16;5097271;28;8822;-59
2023/03/04 08:23:16;;;;;;;;;3.00;1.80;;;;;6.01;67.13;100648.72;5097442;28;8969;-59
2023/03/04 08:25:44;;;;;;;;;3.40;3.00;;;;;6.05;66.77;100637.06;5097330;28;8837;-60
2023/03/04 08:28:12;;;;;;;;;0.00;0.00;;;;;6.07;66.97;100640.50;5095421;28;8829;-60
2023/03/04 08:30:40;;;;;;;;;0.60;0.60;;;;;6.12;67.00;100641.09;5097220;28;8855;-60
2023/03/04 08:33:07;;;;;;;;;1.00;0.00;;;;;6.33;66.78;100627.66;5097435;28;8848;-58
2023/03/04 08:35:35;;;;;;;;;0.80;0.40;;;;;6.58;66.33;100638.69;5097467;28;8837;-59
2023/03/04 08:38:04;;;;;;;;;0.00;0.00;;;;;6.71;66.12;100636.22;5096812;28;8822;-59
2023/03/04 08:40:31;;;;;;;;;0.40;0.40;;;;;6.86;65.71;100624.84;5095953;28;8961;-59
2023/03/04 08:42:59;;;;;;;;;0.00;0.00;;;;;6.98;65.83;100625.03;5097071;28;8842;-59
2023/03/04 08:45:27;;;;;;;;;1.00;1.00;;;;;7.14;65.58;100614.47;5096139;28;8806;-59
2023/03/04 08:47:55;;;;;;;;;0.80;0.80;;;;;7.26;65.29;100624.38;5095643;28;8829;-59
2023/03/04 08:50:23;;;;;;;;;0.00;0.00;;;;;7.43;65.11;100616.34;5095752;28;8840;-60
2023/03/04 08:52:51;;;;;;;;;0.20;0.20;;;;;7.48;65.11;100619.59;5095833;28;8841;-59
2023/03/04 08:55:19;;;;;;;;;0.80;0.40;;;;;7.47;64.37;100623.19;5096109;28;8833;-59
2023/03/04 08:57:46;;;;;;;;;4.00;3.20;;;;;7.47;65.02;100618.75;5091039;28;8829;-58
2023/03/04 09:00:14;;;;;;;;;0.60;0.60;;;;;7.54;65.10;100622.75;5075676;28;8990;-59
2023/03/04 09:02:43;;;;;;;;;0.20;0.20;;;;;7.58;65.03;100620.78;5075951;28;8824;-58
2023/03/04 09:05:11;;;;;;;;;0.40;0.40;;;;;7.59;64.69;100610.09;5075111;28;8836;-58
2023/03/04 09:07:39;;;;;;;;;1.00;1.00;;;;;7.64;64.82;100618.63;5078830;28;8834;-58
2023/03/04 09:10:07;;;;;;;;;1.00;1.00;;;;;7.69;64.55;100612.13;5095403;28;8826;-58
2023/03/04 09:12:35;;;;;;;;;1.00;1.00;;;;;7.64;65.05;100618.63;5095748;28;8850;-59
2023/03/04 09:15:04;;;;;;;;;1.00;0.75;;;;;7.54;65.61;100613.94;5095275;28;9530;-59
2023/03/04 09:17:38;;;;;;;;;0.75;0.75;;;;;7.48;65.99;100622.22;5092205;28;8834;-59
2023/03/04 09:20:07;;;;;;;;;1.00;0.50;;;;;7.47;65.39;100617.88;5075956;28;8974;-61
2023/03/04 09:22:35;;;;;;;;;2.50;1.50;;;;;7.48;65.36;100619.59;5075929;28;8840;-59
2023/03/04 09:25:03;;;;;;;;;3.00;3.00;;;;;7.44;65.61;100612.75;5075031;28;8851;-59
2023/03/04 09:27:31;;;;;;;;;1.00;1.00;;;;;7.42;65.95;100614.66;5075502;28;8888;-60
2023/03/04 09:29:59;;;;;;;;;1.00;1.00;;;;;7.42;66.37;100612.00;5095132;28;8814;-60
2023/03/04 09:32:27;;;;;;;;;1.00;1.00;;;;;7.38;65.60;100618.41;5094356;28;8964;-59
2023/03/04 09:34:55;;;;;;;;;0.80;0.80;;;;;7.29;66.25;100614.47;5095214;28;8830;-60
2023/03/04 09:37:23;;;;;;;;;2.20;2.20;;;;;7.24;66.31;100623.59;5094777;28;8969;-60
2023/03/04 09:39:51;;;;;;;;;0.20;0.20;;;;;7.27;66.31;100623.44;5074814;28;8891;-59
2023/03/04 09:42:20;;;;;;;;;2.60;2.60;;;;;7.25;66.31;100627.97;5075263;28;8847;-59
2023/03/04 09:44:48;;;;;;;;;0.80;0.80;;;;;7.20;66.11;100624.72;5075528;28;9546;-58
2023/03/04 09:47:16;;;;;;;;;1.60;1.00;;;;;7.16;66.46;100623.16;5075226;28;8844;-59
2023/03/04 09:49:44;;;;;;;;;0.00;0.00;;;;;7.19;67.09;100617.72;5093371;28;8857;-59
2023/03/04 09:52:12;;;;;;;;;0.00;0.00;;;;;7.23;66.60;100632.50;5093743;28;8838;-59
2023/03/04 09:54:40;;;;;;;;;0.20;0.20;;;;;7.29;66.37;100619.75;5094223;28;8868;-59
2023/03/04 09:57:08;;;;;;;;;1.00;1.00;;;;;7.33;66.01;100616.00;5094316;28;8822;-61
2023/03/04 09:59:36;;;;;;;;;1.80;1.00;;;;;7.31;66.60;100619.69;5093896;28;8842;-60
2023/03/04 10:02:04;;;;;;;;;1.00;1.00;;;;;7.29;66.04;100616.28;5095273;28;9681;-60
2023/03/04 10:04:33;;;;;;;;;1.00;1.00;;;;;7.20;66.72;100619.44;5095108;28;8837;-60
2023/03/04 10:07:01;;;;;;;;;1.00;1.00;;;;;7.11;66.94;100630.50;5095007;28;8855;-59
2023/03/04 10:09:29;;;;;;;;;1.00;1.00;;;;;7.03;67.01;100624.78;5093986;28;8810;-59
2023/03/04 10:11:58;;;;;;;;;1.00;0.80;;;;;6.95;67.23;100624.34;5094089;28;8853;-58
2023/03/04 10:14:26;;;;;;;;;0.00;0.00;;;;;6.86;67.33;100620.41;5095042;28;8891;-59
2023/03/04 10:16:54;;;;;;;;;2.60;2.60;;;;;6.85;67.42;100620.47;5094036;28;8852;-58
2023/03/04 10:19:22;;;;;;;;;3.00;1.40;;;;;6.88;67.13;100620.31;5093607;28;8818;-59
2023/03/04 10:21:50;;;;;;;;;0.00;0.00;;;;;6.89;67.60;100620.22;5094502;28;8844;-59
2023/03/04 10:24:18;;;;;;;;;0.80;0.80;;;;;6.88;67.66;100609.72;5094273;28;8853;-58
2023/03/04 10:26:46;;;;;;;;;1.80;1.00;;;;;6.88;67.60;100613.22;5094506;28;8830;-61
2023/03/04 10:29:14;;;;;;;;;1.00;1.00;;;;;6.89;67.55;100616.75;5094415;28;8927;-59
2023/03/04 10:31:42;;;;;;;;;2.20;2.20;;;;;6.89;67.70;100617.59;5094019;28;8853;-59
2023/03/04 10:34:11;;;;;;;;;3.20;2.20;;;;;6.89;68.16;100622.03;5094566;28;8852;-60
2023/03/04 10:36:38;;;;;;;;;0.20;0.20;;;;;6.88;68.06;100610.59;5094270;28;9580;-61
2023/03/04 10:39:07;;;;;;;;;1.80;1.00;;;;;6.88;67.89;100613.22;5091521;28;8881;-60
2023/03/04 10:41:35;;;;;;;;;1.00;1.00;;;;;6.91;68.10;100612.22;5091783;28;8829;-59
2023/03/04 10:44:03;;;;;;;;;2.20;1.80;;;;;6.98;67.73;100613.59;5091678;28;8840;-61
2023/03/04 10:46:31;;;;;;;;;1.00;1.00;;;;;7.04;67.99;100602.69;5091767;28;9007;-60
2023/03/04 10:48:59;;;;;;;;;1.00;1.00;;;;;7.21;67.72;100602.59;5092651;28;8834;-60
2023/03/04 10:51:27;;;;;;;;;1.40;1.40;;;;;7.60;66.73;100592.41;5092548;28;8960;-59
2023/03/04 10:53:55;;;;;;;;;3.00;3.00;;;;;7.87;66.54;100600.47;5093655;28;8870;-61
2023/03/04 10:56:23;;;;;;;;;1.80;0.80;;;;;7.94;66.03;100599.19;5092952;28;8847;-60
2023/03/04 10:58:51;;;;;;;;;1.80;1.40;;;;;7.91;66.32;100593.22;5093207;28;8862;-62
2023/03/04 11:01:23;;;;;;;;;3.00;1.00;;;;;7.88;66.29;100585.41;5093855;28;8905;-60
2023/03/04 11:03:52;;;;;;;;;2.00;2.00;;;;;7.84;66.50;100589.19;5098250;28;8822;-59
2023/03/04 11:06:20;;;;;;;;;0.00;0.00;;;;;7.77;66.88;100585.19;5097479;28;8834;-59
2023/03/04 11:08:48;;;;;;;;;4.40;3.40;;;;;7.73;66.71;100583.66;5097083;28;8829;-59
2023/03/04 11:11:16;;;;;;;;;2.60;1.00;;;;;7.68;66.94;100583.09;5098441;28;8822;-61
2023/03/04 11:13:44;;;;;;;;;3.00;3.00;;;;;7.63;67.21;100576.31;5098924;28;8837;-60
2023/03/04 11:16:12;;;;;;;;;1.50;1.50;;;;;7.57;67.47;100585.47;5098114;28;8833;-60
2023/03/04 11:18:40;;;;;;;;;2.00;1.00;;;;;7.53;67.24;100593.69;5078798;28;8820;-59
2023/03/04 11:21:09;;;;;;;;;1.00;1.00;;;;;7.46;67.95;100587.03;5077540;28;8832;-59
2023/03/04 11:23:36;;;;;;;;;3.00;2.60;;;;;7.39;67.16;100593.63;5077761;28;8832;-58
2023/03/04 11:26:04;;;;;;;;;3.00;1.40;;;;;7.30;68.09;100588.84;5078089;28;8855;-59
2023/03/04 11:28:33;;;;;;;;;3.20;3.00;;;;;7.22;68.25;100577.81;5095115;28;8842;-63
2023/03/04 11:31:01;;;;;;;;;3.00;3.00;;;;;7.15;68.42;100574.66;5098016;28;8926;-59
2023/03/04 11:33:31;;;;;;;;;4.00;3.60;;;;;7.19;67.94;100578.84;5098283;28;8837;-60
2023/03/04 11:35:59;;;;;;;;;3.00;1.00;;;;;7.31;68.02;100579.94;5098765;28;8834;-59
2023/03/04 11:38:27;;;;;;;;;1.40;1.40;;;;;7.45;67.93;100564.13;5081563;28;8823;-58
2023/03/04 11:40:55;;;;;;;;;2.80;2.60;;;;;7.56;67.69;100559.94;5077258;28;8828;-60
2023/03/04 11:43:23;;;;;;;;;3.80;3.40;;;;;7.64;67.61;100560.34;5077963;28;8942;-60